Time;durP1;ratioP1;P1;durP2;ratioP2;P2;SDS_P1;SDS_P2;PMS_P1;PMS_P2;Temp;Humidity;BMP_temperature;BMP_pressure;BME280_temperature;BME280_humidity;BME280_pressure;Samples;Min_cycle;Max_cycle;Signal;HPM_P1;HPM_P2
2024/01/16 00:00:51;;;;;;;0.25;0.17;;;-1.60;99.90;;;;;;5044594;28;20025;-69
2024/01/16 00:03:16;;;;;;;0.40;0.40;;;-1.60;99.90;;;;;;5035750;28;20025;-69
2024/01/16 00:05:42;;;;;;;0.55;0.55;;;-1.70;99.90;;;;;;5039974;28;20557;-70
2024/01/16 00:08:07;;;;;;;0.20;0.20;;;-1.80;99.90;;;;;;5043663;28;20041;-70
2024/01/16 00:10:33;;;;;;;9.73;0.98;;;-1.80;99.90;;;;;;5039989;28;20029;-69
2024/01/16 00:12:59;;;;;;;2.25;0.90;;;-1.80;99.90;;;;;;5043236;28;20031;-69
2024/01/16 00:15:24;;;;;;;0.45;0.45;;;-1.70;99.90;;;;;;5043614;28;20029;-69
2024/01/16 00:17:51;;;;;;;0.90;0.57;;;-1.70;99.90;;;;;;5039008;28;20036;-70
2024/01/16 00:20:16;;;;;;;1.88;1.77;;;-1.70;99.90;;;;;;5040029;28;20778;-68
2024/01/16 00:22:42;;;;;;;0.28;0.28;;;-1.70;99.90;;;;;;5041615;28;21034;-70
2024/01/16 00:25:08;;;;;;;0.28;0.28;;;-1.80;99.90;;;;;;5041070;28;20049;-69
2024/01/16 00:27:34;;;;;;;0.57;0.57;;;-1.80;99.90;;;;;;5041876;28;20028;-69
2024/01/16 00:29:59;;;;;;;0.95;0.73;;;-1.80;99.90;;;;;;5035834;28;20068;-69
2024/01/16 00:32:25;;;;;;;0.73;0.73;;;-1.80;99.90;;;;;;5042780;28;20064;-69
2024/01/16 00:34:50;;;;;;;1.52;1.30;;;-1.80;99.90;;;;;;5040416;28;20057;-70
2024/01/16 00:37:16;;;;;;;1.02;1.02;;;-1.80;99.90;;;;;;5036309;28;20039;-69
2024/01/16 00:39:42;;;;;;;1.40;0.93;;;-1.80;99.90;;;;;;5043028;28;20035;-70
2024/01/16 00:42:08;;;;;;;0.98;0.98;;;-1.90;99.90;;;;;;5043207;28;21504;-69
2024/01/16 00:44:34;;;;;;;1.42;0.73;;;-1.80;99.90;;;;;;5040564;28;20037;-69
2024/01/16 00:47:01;;;;;;;1.35;0.40;;;-1.90;99.90;;;;;;5045196;28;20047;-70
2024/01/16 00:49:27;;;;;;;0.45;0.40;;;-2.00;99.90;;;;;;5040196;28;20044;-69
2024/01/16 00:51:53;;;;;;;1.98;0.90;;;-2.00;99.90;;;;;;5040287;28;20068;-69
2024/01/16 00:54:19;;;;;;;0.98;0.45;;;-2.10;99.90;;;;;;5044586;28;20056;-70
2024/01/16 00:56:44;;;;;;;0.40;0.40;;;-2.20;99.90;;;;;;5042731;28;20789;-69
2024/01/16 00:59:10;;;;;;;1.52;0.75;;;-2.20;99.90;;;;;;5054152;28;20029;-70
2024/01/16 01:01:37;;;;;;;0.82;0.63;;;-2.20;99.90;;;;;;5040169;28;20032;-69
2024/01/16 01:04:03;;;;;;;0.90;0.90;;;-2.30;99.90;;;;;;5039435;28;20078;-70
2024/01/16 01:06:29;;;;;;;0.50;0.50;;;-2.30;99.90;;;;;;5042772;28;20033;-69
2024/01/16 01:08:54;;;;;;;0.65;0.65;;;-2.20;99.90;;;;;;5040781;28;20037;-70
2024/01/16 01:11:20;;;;;;;2.40;0.50;;;-2.20;99.90;;;;;;5041336;28;20036;-69
2024/01/16 01:13:46;;;;;;;0.45;0.45;;;-2.20;99.90;;;;;;5039689;28;20041;-69
2024/01/16 01:16:11;;;;;;;0.88;0.75;;;-2.20;99.90;;;;;;5037356;28;20082;-70
2024/01/16 01:18:37;;;;;;;6.32;0.70;;;-2.20;99.90;;;;;;5038078;28;20044;-69
2024/01/16 01:21:03;;;;;;;6.13;1.10;;;-2.20;99.90;;;;;;5041132;28;20037;-70
2024/01/16 01:23:28;;;;;;;0.40;0.40;;;-2.30;99.90;;;;;;5037604;28;20057;-70
2024/01/16 01:25:54;;;;;;;1.10;0.98;;;-2.40;99.90;;;;;;5041452;28;20032;-70
2024/01/16 01:28:20;;;;;;;0.82;0.60;;;-2.40;99.90;;;;;;5036719;28;20041;-70
2024/01/16 01:30:46;;;;;;;19.80;1.33;;;-2.40;99.90;;;;;;5033783;28;20036;-69
2024/01/16 01:33:11;;;;;;;1.05;0.63;;;-2.50;99.90;;;;;;5040463;28;20029;-69
2024/01/16 01:35:37;;;;;;;0.60;0.60;;;-2.50;99.90;;;;;;5044885;28;20056;-69
2024/01/16 01:38:03;;;;;;;0.43;0.43;;;-2.50;99.90;;;;;;5040572;28;20585;-70
2024/01/16 01:40:29;;;;;;;13.13;0.98;;;-2.50;99.90;;;;;;5044474;28;20047;-68
2024/01/16 01:42:54;;;;;;;1.20;1.10;;;-2.50;99.90;;;;;;5041869;28;20678;-69
2024/01/16 01:45:21;;;;;;;0.90;0.90;;;-2.50;99.90;;;;;;5043444;28;20041;-69
2024/01/16 01:47:47;;;;;;;0.95;0.95;;;-2.50;99.90;;;;;;5040101;28;20058;-70
2024/01/16 01:50:13;;;;;;;0.45;0.45;;;-2.50;99.90;;;;;;5035121;28;20819;-69
2024/01/16 01:52:40;;;;;;;0.17;0.17;;;-2.60;99.90;;;;;;5037804;28;20033;-69
2024/01/16 01:55:10;;;;;;;1.15;1.05;;;-2.70;99.90;;;;;;5040894;28;20029;-69
2024/01/16 01:57:36;;;;;;;2.92;0.75;;;-2.80;99.90;;;;;;5033920;28;20039;-69
2024/01/16 02:00:04;;;;;;;2.40;0.50;;;-2.90;99.90;;;;;;5040469;28;20029;-70
2024/01/16 02:02:30;;;;;;;3.22;1.60;;;-2.90;99.90;;;;;;5037637;28;20566;-69
2024/01/16 02:04:56;;;;;;;0.40;0.40;;;-3.00;99.90;;;;;;5036734;28;20417;-69
2024/01/16 02:07:23;;;;;;;0.90;0.90;;;-2.90;99.90;;;;;;5043267;28;20370;-69
2024/01/16 02:09:49;;;;;;;0.47;0.47;;;-2.90;99.90;;;;;;5038058;28;20029;-70
2024/01/16 02:12:15;;;;;;;2.28;1.05;;;-3.00;99.90;;;;;;5040631;28;20040;-69
2024/01/16 02:14:41;;;;;;;1.02;0.70;;;-3.10;99.90;;;;;;5041706;28;20029;-69
2024/01/16 02:17:06;;;;;;;0.77;0.68;;;-3.10;99.90;;;;;;5034193;28;20040;-69
2024/01/16 02:19:32;;;;;;;1.08;0.98;;;-3.00;99.90;;;;;;5039875;28;20033;-70
2024/01/16 02:22:01;;;;;;;1.05;0.50;;;-3.00;99.90;;;;;;5041203;28;20059;-69
2024/01/16 02:24:27;;;;;;;0.98;0.70;;;-3.00;99.90;;;;;;5036764;28;20128;-69
2024/01/16 02:26:53;;;;;;;1.25;0.88;;;-3.00;99.90;;;;;;5042400;28;20119;-69
2024/01/16 02:29:19;;;;;;;0.57;0.22;;;-3.10;99.90;;;;;;5034926;28;20112;-70
2024/01/16 02:31:45;;;;;;;0.73;0.73;;;-3.00;99.90;;;;;;5035608;28;20416;-69
2024/01/16 02:34:10;;;;;;;2.05;1.33;;;-3.10;99.90;;;;;;5037947;28;20470;-70
2024/01/16 02:36:37;;;;;;;1.80;1.70;;;-3.00;99.90;;;;;;5039554;28;20110;-69
2024/01/16 02:39:02;;;;;;;0.25;0.25;;;-3.10;99.90;;;;;;5038402;28;20033;-69
2024/01/16 02:41:28;;;;;;;0.90;0.75;;;-3.00;99.90;;;;;;5041099;28;20048;-70
2024/01/16 02:43:54;;;;;;;0.10;0.10;;;-3.10;99.90;;;;;;5037060;28;20489;-69
2024/01/16 02:46:19;;;;;;;0.40;0.40;;;-3.10;99.90;;;;;;5042707;28;20761;-70
2024/01/16 02:48:46;;;;;;;0.15;0.15;;;-3.10;99.90;;;;;;5035393;28;20037;-69
2024/01/16 02:51:12;;;;;;;0.45;0.45;;;-3.10;99.90;;;;;;5037009;28;20094;-70
2024/01/16 02:53:38;;;;;;;0.60;0.60;;;-3.10;99.90;;;;;;5040745;28;20048;-69
2024/01/16 02:56:04;;;;;;;1.38;1.27;;;-3.20;99.90;;;;;;5036480;28;20033;-69
2024/01/16 02:58:31;;;;;;;0.05;0.05;;;-3.30;99.90;;;;;;5036838;28;20064;-70
2024/01/16 03:00:57;;;;;;;0.17;0.17;;;-3.30;99.90;;;;;;5039879;28;20025;-70
2024/01/16 03:03:23;;;;;;;0.57;0.57;;;-3.30;99.90;;;;;;5033037;28;20047;-69
2024/01/16 03:05:49;;;;;;;0.70;0.70;;;-3.30;99.90;;;;;;5036699;28;20167;-69
2024/01/16 03:08:15;;;;;;;0.65;0.63;;;-3.40;99.90;;;;;;5037546;28;20547;-70
2024/01/16 03:10:41;;;;;;;0.30;0.30;;;-3.50;99.90;;;;;;5035887;28;20132;-70
2024/01/16 03:13:21;;;;;;;0.65;0.63;;;-3.40;99.90;;;;;;5038406;28;20035;-69
2024/01/16 03:15:47;;;;;;;1.13;1.13;;;-3.40;99.90;;;;;;5022671;28;20060;-69
2024/01/16 03:18:13;;;;;;;1.83;0.32;;;-3.30;99.90;;;;;;5036185;28;20170;-70
2024/01/16 03:20:38;;;;;;;0.30;0.30;;;-3.30;99.90;;;;;;5040333;28;20041;-69
2024/01/16 03:23:04;;;;;;;0.17;0.17;;;-3.20;99.90;;;;;;5037720;28;20061;-70
2024/01/16 03:25:30;;;;;;;0.17;0.17;;;-3.20;99.90;;;;;;5037892;28;20044;-70
2024/01/16 03:27:55;;;;;;;0.63;0.38;;;-3.20;99.90;;;;;;5039329;28;20071;-70
2024/01/16 03:30:21;;;;;;;1.38;1.05;;;-3.10;99.90;;;;;;5042437;28;20114;-69
2024/01/16 03:32:47;;;;;;;4.10;1.15;;;-3.00;99.90;;;;;;5046195;28;20029;-69
2024/01/16 03:35:13;;;;;;;0.20;0.20;;;-3.00;99.90;;;;;;5041043;28;20033;-69
2024/01/16 03:37:39;;;;;;;0.45;0.40;;;-2.90;99.90;;;;;;5033737;28;20463;-70
2024/01/16 03:40:05;;;;;;;0.47;0.47;;;-2.90;99.90;;;;;;5038813;28;20025;-68
2024/01/16 03:42:31;;;;;;;1.27;0.75;;;-2.90;99.90;;;;;;5040499;28;20051;-69
2024/01/16 03:44:56;;;;;;;0.40;0.40;;;-3.00;99.90;;;;;;5040805;28;20687;-69
2024/01/16 03:47:23;;;;;;;0.15;0.15;;;-3.00;99.90;;;;;;5044584;28;20934;-69
2024/01/16 03:49:48;;;;;;;0.85;0.85;;;-2.90;99.90;;;;;;5040713;28;20036;-71
2024/01/16 03:52:14;;;;;;;0.30;0.30;;;-2.90;99.90;;;;;;5039833;28;20069;-70
2024/01/16 03:54:40;;;;;;;1.60;0.70;;;-2.90;99.90;;;;;;5043680;28;20025;-69
2024/01/16 03:57:05;;;;;;;5.40;0.90;;;-2.80;99.90;;;;;;5038789;28;20032;-69
2024/01/16 03:59:31;;;;;;;0.82;0.68;;;-2.80;99.90;;;;;;5042648;28;20040;-69
2024/01/16 04:01:57;;;;;;;0.17;0.17;;;-2.80;99.90;;;;;;5039835;28;20045;-69
2024/01/16 04:04:23;;;;;;;6.40;0.85;;;-2.90;99.90;;;;;;5040790;28;20090;-70
2024/01/16 04:06:48;;;;;;;0.30;0.30;;;-2.90;99.90;;;;;;5044031;28;20094;-69
2024/01/16 04:09:14;;;;;;;0.28;0.28;;;-2.90;99.90;;;;;;5042700;28;20033;-69
2024/01/16 04:11:40;;;;;;;0.63;0.63;;;-2.90;99.90;;;;;;5038889;28;21485;-70
2024/01/16 04:14:06;;;;;;;0.38;0.38;;;-2.90;99.90;;;;;;5043099;28;20037;-68
2024/01/16 04:16:32;;;;;;;0.30;0.20;;;-2.90;99.90;;;;;;5040770;28;20448;-69
2024/01/16 04:18:57;;;;;;;0.08;0.08;;;-2.70;99.90;;;;;;5040862;28;20021;-69
2024/01/16 04:21:23;;;;;;;0.38;0.38;;;-2.70;99.90;;;;;;5045100;28;20040;-70
2024/01/16 04:23:48;;;;;;;0.20;0.20;;;-2.60;99.90;;;;;;5041709;28;20049;-68
2024/01/16 04:26:14;;;;;;;0.00;0.00;;;-2.50;99.90;;;;;;5041770;28;20037;-69
2024/01/16 04:28:40;;;;;;;0.10;0.10;;;-2.40;99.90;;;;;;5022896;28;20051;-70
2024/01/16 04:31:05;;;;;;;0.20;0.20;;;-2.50;99.90;;;;;;5035872;28;20067;-69
2024/01/16 04:33:31;;;;;;;0.15;0.10;;;-2.40;99.90;;;;;;5039452;28;20121;-70
2024/01/16 04:35:57;;;;;;;0.32;0.32;;;-2.40;99.90;;;;;;5040835;28;20040;-70
2024/01/16 04:38:23;;;;;;;0.10;0.10;;;-2.40;99.90;;;;;;5034988;28;20036;-70
2024/01/16 04:40:49;;;;;;;0.40;0.40;;;-2.30;99.90;;;;;;5040381;28;20424;-69
2024/01/16 04:43:15;;;;;;;0.22;0.22;;;-2.30;99.90;;;;;;5039903;28;20028;-70
2024/01/16 04:45:40;;;;;;;0.57;0.57;;;-2.30;99.90;;;;;;5036156;28;20033;-70
2024/01/16 04:48:08;;;;;;;0.75;0.70;;;-2.30;99.90;;;;;;5044643;28;20139;-68
2024/01/16 04:50:34;;;;;;;0.65;0.65;;;-2.30;99.90;;;;;;5041547;28;20029;-70
2024/01/16 04:53:00;;;;;;;0.00;0.00;;;-2.20;99.90;;;;;;5042836;28;20047;-71
2024/01/16 04:55:27;;;;;;;2.22;0.55;;;-2.20;99.90;;;;;;5041015;28;20032;-70
2024/01/16 04:57:54;;;;;;;0.20;0.20;;;-2.30;99.90;;;;;;5036579;28;20078;-70
2024/01/16 05:00:20;;;;;;;0.25;0.25;;;-2.30;99.90;;;;;;5039348;28;20024;-69
2024/01/16 05:02:46;;;;;;;1.42;0.98;;;-2.30;99.90;;;;;;5033927;28;20029;-68
2024/01/16 05:05:12;;;;;;;0.65;0.52;;;-2.30;99.90;;;;;;5029417;28;20421;-69
2024/01/16 05:07:38;;;;;;;0.00;0.00;;;-2.40;99.90;;;;;;5040006;28;20592;-69
2024/01/16 05:10:04;;;;;;;0.10;0.10;;;-2.50;99.90;;;;;;5037575;28;20040;-70
2024/01/16 05:12:29;;;;;;;0.20;0.20;;;-2.60;99.90;;;;;;5026776;28;20409;-68
2024/01/16 05:14:55;;;;;;;0.00;0.00;;;-2.60;99.90;;;;;;5045098;28;20032;-70
2024/01/16 05:17:21;;;;;;;6.15;0.63;;;-2.60;99.90;;;;;;5039758;28;20498;-69
2024/01/16 05:19:46;;;;;;;0.00;0.00;;;-2.70;99.90;;;;;;5041353;28;20071;-68
2024/01/16 05:22:12;;;;;;;0.73;0.25;;;-2.70;99.90;;;;;;5045117;28;20059;-69
2024/01/16 05:24:37;;;;;;;0.13;0.13;;;-2.80;99.90;;;;;;5037727;28;20455;-69
2024/01/16 05:27:04;;;;;;;0.10;0.10;;;-2.90;99.90;;;;;;5041601;28;20123;-69
2024/01/16 05:29:31;;;;;;;0.30;0.30;;;-2.90;99.90;;;;;;5040778;28;20119;-70
2024/01/16 05:31:56;;;;;;;0.20;0.20;;;-3.00;99.90;;;;;;5036778;28;20040;-69
2024/01/16 05:34:22;;;;;;;0.10;0.10;;;-3.00;99.90;;;;;;5043998;28;20029;-68
2024/01/16 05:36:48;;;;;;;0.22;0.22;;;-3.00;99.90;;;;;;5041627;28;20083;-69
2024/01/16 05:39:13;;;;;;;0.52;0.52;;;-3.00;99.90;;;;;;5039630;28;20029;-69
2024/01/16 05:41:40;;;;;;;0.10;0.10;;;-3.00;99.90;;;;;;5043266;28;20025;-68
2024/01/16 05:44:05;;;;;;;0.03;0.03;;;-3.10;99.90;;;;;;5038887;28;20028;-69
2024/01/16 05:46:32;;;;;;;0.50;0.50;;;-3.20;99.90;;;;;;5038823;28;20025;-69
2024/01/16 05:48:57;;;;;;;0.30;0.30;;;-3.30;99.90;;;;;;5042060;28;20174;-69
2024/01/16 05:51:24;;;;;;;0.43;0.32;;;-3.30;99.90;;;;;;5040200;28;20488;-69
2024/01/16 05:53:49;;;;;;;0.10;0.10;;;-3.40;99.90;;;;;;5043347;28;20027;-69
2024/01/16 05:56:15;;;;;;;0.10;0.10;;;-3.40;99.90;;;;;;5042445;28;20502;-68
2024/01/16 05:58:41;;;;;;;0.28;0.25;;;-3.60;99.90;;;;;;5035109;28;20036;-69
2024/01/16 06:01:06;;;;;;;0.25;0.25;;;-3.60;99.90;;;;;;5039832;28;20114;-69
2024/01/16 06:03:32;;;;;;;0.10;0.10;;;-3.70;99.90;;;;;;5042117;28;20017;-69
2024/01/16 06:05:58;;;;;;;2.88;0.32;;;-3.70;99.90;;;;;;5037038;28;20067;-68
2024/01/16 06:08:24;;;;;;;1.48;0.40;;;-3.80;99.90;;;;;;5041604;28;20037;-69
2024/01/16 06:10:50;;;;;;;4.68;2.60;;;-3.70;99.90;;;;;;5040185;28;20037;-69
2024/01/16 06:13:18;;;;;;;0.47;0.38;;;-3.70;99.90;;;;;;5038808;28;20032;-68
2024/01/16 06:15:44;;;;;;;0.75;0.75;;;-3.70;99.90;;;;;;5041394;28;20181;-69
2024/01/16 06:18:10;;;;;;;1.00;1.00;;;-3.70;99.90;;;;;;5030852;28;20054;-68
2024/01/16 06:20:36;;;;;;;1.85;1.17;;;-3.60;99.90;;;;;;5031315;28;20120;-69
2024/01/16 06:23:01;;;;;;;2.35;1.38;;;-3.60;99.90;;;;;;5040865;28;20061;-69
2024/01/16 06:25:27;;;;;;;0.25;0.25;;;-3.70;99.90;;;;;;5037474;28;20757;-68
2024/01/16 06:27:52;;;;;;;0.95;0.95;;;-3.70;99.90;;;;;;5030158;28;20041;-69
2024/01/16 06:30:18;;;;;;;0.47;0.47;;;-3.80;99.90;;;;;;5047279;28;20041;-70
2024/01/16 06:32:44;;;;;;;0.40;0.40;;;-3.90;99.90;;;;;;5043625;28;20029;-69
2024/01/16 06:35:11;;;;;;;17.15;1.55;;;-3.90;99.90;;;;;;5040735;28;20420;-69
2024/01/16 06:37:37;;;;;;;0.40;0.40;;;-4.00;99.90;;;;;;5036679;28;20030;-69
2024/01/16 06:40:04;;;;;;;0.60;0.60;;;-3.90;99.90;;;;;;5039397;28;20029;-68
2024/01/16 06:42:29;;;;;;;0.57;0.57;;;-3.90;99.90;;;;;;5039618;28;20029;-70
2024/01/16 06:44:55;;;;;;;1.10;0.75;;;-3.90;99.90;;;;;;5035481;28;20496;-68
2024/01/16 06:47:21;;;;;;;1.33;1.23;;;-3.90;99.90;;;;;;5039925;28;20036;-68
2024/01/16 06:49:47;;;;;;;0.10;0.10;;;-4.00;99.90;;;;;;5038264;28;20630;-69
2024/01/16 06:52:12;;;;;;;0.98;0.98;;;-4.00;99.90;;;;;;5037625;28;20037;-69
2024/01/16 06:54:38;;;;;;;0.45;0.45;;;-4.00;99.90;;;;;;5042112;28;20070;-68
2024/01/16 06:57:04;;;;;;;1.25;1.15;;;-4.10;99.90;;;;;;5041793;28;20394;-68
2024/01/16 06:59:30;;;;;;;0.40;0.40;;;-4.10;99.90;;;;;;5035678;28;20829;-68
2024/01/16 07:01:55;;;;;;;0.95;0.95;;;-4.20;99.90;;;;;;5039299;28;20021;-69
2024/01/16 07:04:21;;;;;;;0.10;0.10;;;-4.20;99.90;;;;;;5030427;28;20039;-68
2024/01/16 07:06:47;;;;;;;0.43;0.28;;;-4.20;99.90;;;;;;5037871;28;20033;-69
2024/01/16 07:09:13;;;;;;;0.47;0.45;;;-4.30;99.90;;;;;;5030453;28;20529;-68
2024/01/16 07:11:42;;;;;;;2.13;1.65;;;-4.30;99.90;;;;;;5026738;28;20075;-70
2024/01/16 07:14:08;;;;;;;;;;;-4.30;99.90;;;;;;5038509;28;20029;-70
2024/01/16 07:16:34;;;;;;;3.42;0.73;;;-4.20;99.90;;;;;;5038003;28;19923;-69
2024/01/16 07:18:59;;;;;;;0.38;0.38;;;-4.30;99.90;;;;;;5035277;28;20025;-68
2024/01/16 07:21:25;;;;;;;0.95;0.73;;;-4.30;99.90;;;;;;5041474;28;20043;-68
2024/01/16 07:23:51;;;;;;;2.63;1.20;;;-4.30;99.90;;;;;;5043030;28;20117;-68
2024/01/16 07:26:16;;;;;;;0.88;0.70;;;-4.30;99.90;;;;;;5039603;28;20047;-68
2024/01/16 07:28:42;;;;;;;0.20;0.20;;;-4.30;99.90;;;;;;5040724;28;20056;-68
2024/01/16 07:31:09;;;;;;;0.13;0.13;;;-4.40;99.90;;;;;;5040935;28;20043;-68
2024/01/16 07:33:35;;;;;;;0.47;0.45;;;-4.40;99.90;;;;;;5042097;28;20021;-68
2024/01/16 07:36:01;;;;;;;1.48;1.15;;;-4.40;99.90;;;;;;5046304;28;20032;-69
2024/01/16 07:38:26;;;;;;;3.03;1.85;;;-4.30;99.90;;;;;;5032657;28;20703;-69
2024/01/16 07:40:52;;;;;;;1.55;1.05;;;-4.30;99.90;;;;;;5040641;28;20021;-70
2024/01/16 07:43:18;;;;;;;0.28;0.28;;;-4.30;99.90;;;;;;5040704;28;20523;-68
2024/01/16 07:45:43;;;;;;;3.40;1.05;;;-4.20;99.90;;;;;;5035832;28;20040;-69
2024/01/16 07:48:09;;;;;;;0.93;0.93;;;-4.20;99.90;;;;;;5043892;28;21686;-68
2024/01/16 07:50:35;;;;;;;0.63;0.60;;;-4.20;99.90;;;;;;5036091;28;20043;-70
2024/01/16 07:53:00;;;;;;;2.22;2.10;;;-4.10;99.90;;;;;;5030520;28;20039;-70
2024/01/16 07:55:26;;;;;;;0.85;0.85;;;-4.10;99.90;;;;;;5036415;28;20025;-68
2024/01/16 07:57:53;;;;;;;0.75;0.68;;;-4.10;99.90;;;;;;5037579;28;21005;-69
2024/01/16 08:00:19;;;;;;;0.38;0.38;;;-4.10;99.90;;;;;;5035835;28;20147;-69
2024/01/16 08:02:44;;;;;;;0.77;0.63;;;-4.10;99.90;;;;;;5041185;28;20033;-68
2024/01/16 08:05:10;;;;;;;0.77;0.77;;;-4.10;99.90;;;;;;5034818;28;20090;-69
2024/01/16 08:07:36;;;;;;;2.03;1.40;;;-4.10;99.90;;;;;;5036220;28;20496;-69
2024/01/16 08:10:02;;;;;;;0.82;0.52;;;-4.10;99.90;;;;;;5035554;28;20036;-69
2024/01/16 08:12:28;;;;;;;0.65;0.47;;;-4.20;99.90;;;;;;5032696;28;20053;-68
2024/01/16 08:14:54;;;;;;;0.95;0.95;;;-4.10;99.90;;;;;;5037522;28;20112;-71
2024/01/16 08:17:19;;;;;;;0.50;0.35;;;-4.10;99.90;;;;;;5035056;28;20053;-70
2024/01/16 08:19:45;;;;;;;0.95;0.95;;;-4.10;99.90;;;;;;5025840;28;20033;-69
2024/01/16 08:22:11;;;;;;;0.45;0.45;;;-4.10;99.90;;;;;;5032067;28;20990;-69
2024/01/16 08:24:37;;;;;;;0.93;0.93;;;-4.10;99.90;;;;;;5029188;28;20036;-70
2024/01/16 08:27:03;;;;;;;1.55;1.45;;;-4.10;99.90;;;;;;5029048;28;20032;-70
2024/01/16 08:29:29;;;;;;;1.13;1.13;;;-4.10;99.90;;;;;;5029592;28;20075;-68
2024/01/16 08:31:54;;;;;;;0.70;0.70;;;-4.00;99.90;;;;;;5023243;28;20033;-69
2024/01/16 08:34:20;;;;;;;9.05;1.55;;;-3.90;99.90;;;;;;5028093;28;20081;-69
2024/01/16 08:36:46;;;;;;;1.95;1.75;;;-3.90;99.90;;;;;;5031414;28;20037;-69
2024/01/16 08:39:11;;;;;;;3.20;1.65;;;-3.80;99.90;;;;;;5027786;28;20099;-69
2024/01/16 08:41:37;;;;;;;1.05;0.82;;;-3.80;99.90;;;;;;5030690;28;20033;-69
2024/01/16 08:44:04;;;;;;;0.98;0.20;;;-3.80;99.90;;;;;;5035916;28;20071;-69
2024/01/16 08:46:29;;;;;;;1.55;0.88;;;-3.80;99.90;;;;;;5028782;28;20037;-70
2024/01/16 08:48:55;;;;;;;2.67;2.20;;;-3.70;99.90;;;;;;5031049;28;20404;-69
2024/01/16 08:51:21;;;;;;;0.40;0.40;;;-3.70;99.90;;;;;;5027006;28;20857;-71
2024/01/16 08:53:46;;;;;;;1.65;1.50;;;-3.70;99.90;;;;;;5033964;28;20119;-72
2024/01/16 08:56:12;;;;;;;0.95;0.95;;;-3.60;99.90;;;;;;5032459;28;20087;-73
2024/01/16 08:58:39;;;;;;;1.95;1.17;;;-3.50;99.90;;;;;;5030047;28;20033;-76
2024/01/16 09:01:05;;;;;;;0.95;0.95;;;-3.40;99.90;;;;;;5032973;28;21530;-71
2024/01/16 09:03:33;;;;;;;0.32;0.32;;;-3.40;99.90;;;;;;5035435;28;20095;-72
2024/01/16 09:05:59;;;;;;;0.82;0.63;;;-3.30;99.90;;;;;;5032774;28;20071;-71
2024/01/16 09:08:26;;;;;;;0.65;0.65;;;-3.20;99.90;;;;;;5036581;28;20043;-75
2024/01/16 09:10:55;;;;;;;0.52;0.52;;;-3.10;99.90;;;;;;5032674;28;20047;-73
2024/01/16 09:13:21;;;;;;;0.25;0.25;;;-3.00;99.90;;;;;;5029030;28;20045;-72
2024/01/16 09:15:47;;;;;;;7.45;1.00;;;-2.90;99.90;;;;;;5033165;28;20564;-69
2024/01/16 09:18:13;;;;;;;0.70;0.70;;;-2.80;99.90;;;;;;5028391;28;20139;-72
2024/01/16 09:20:39;;;;;;;3.17;0.65;;;-2.70;99.90;;;;;;5030562;28;20494;-74
2024/01/16 09:23:05;;;;;;;0.60;0.40;;;-2.60;99.90;;;;;;5033161;28;20049;-73
2024/01/16 09:25:30;;;;;;;1.08;1.00;;;-2.50;99.90;;;;;;5027236;28;20052;-72
2024/01/16 09:27:56;;;;;;;0.50;0.50;;;-2.50;99.90;;;;;;5034903;28;20036;-72
2024/01/16 09:30:22;;;;;;;0.28;0.28;;;-2.40;99.90;;;;;;5028183;28;20029;-72
2024/01/16 09:32:48;;;;;;;0.55;0.55;;;-2.20;99.90;;;;;;5022459;28;20431;-71
2024/01/16 09:35:14;;;;;;;0.65;0.45;;;-2.10;99.90;;;;;;5028458;28;20570;-71
2024/01/16 09:37:40;;;;;;;0.40;0.40;;;-1.90;99.90;;;;;;5027483;28;20070;-72
2024/01/16 09:40:07;;;;;;;0.90;0.52;;;-1.80;99.90;;;;;;5028863;28;20033;-71
2024/01/16 09:42:33;;;;;;;0.60;0.60;;;-1.60;99.90;;;;;;5033782;28;20037;-71
2024/01/16 09:45:02;;;;;;;1.48;0.55;;;-1.50;99.90;;;;;;5030221;28;20048;-72
2024/01/16 09:47:28;;;;;;;;;;;-1.50;99.90;;;;;;5034736;28;20076;-73
2024/01/16 09:49:56;;;;;;;0.32;0.32;;;-1.40;99.90;;;;;;5036812;28;19938;-71
2024/01/16 09:52:21;;;;;;;0.25;0.25;;;-1.30;99.90;;;;;;5047901;28;20326;-72
2024/01/16 09:54:48;;;;;;;0.40;0.40;;;-1.10;99.90;;;;;;5049947;28;20045;-70
2024/01/16 09:57:17;;;;;;;0.55;0.55;;;-1.00;99.90;;;;;;5029486;28;20129;-75
2024/01/16 09:59:44;;;;;;;1.98;1.88;;;-0.80;99.90;;;;;;5029610;28;20116;-72
2024/01/16 10:02:12;;;;;;;0.63;0.63;;;-0.60;99.90;;;;;;5031762;28;20496;-75
2024/01/16 10:04:38;;;;;;;2.38;1.13;;;-0.40;99.90;;;;;;5029912;28;20554;-70
2024/01/16 10:07:05;;;;;;;2.33;0.30;;;-0.20;99.90;;;;;;5019262;28;20029;-71
2024/01/16 10:09:31;;;;;;;0.40;0.38;;;-0.10;99.90;;;;;;5024386;28;20090;-73
2024/01/16 10:11:57;;;;;;;0.60;0.60;;;0.10;99.90;;;;;;5027300;28;20090;-74
2024/01/16 10:14:24;;;;;;;0.90;0.90;;;0.30;99.90;;;;;;5031790;28;20087;-74
2024/01/16 10:17:05;;;;;;;0.65;0.60;;;0.40;99.90;;;;;;5031380;28;20037;-73
2024/01/16 10:19:32;;;;;;;1.50;0.63;;;0.60;99.90;;;;;;5018509;28;20026;-73
2024/01/16 10:22:02;;;;;;;1.15;1.15;;;0.80;99.90;;;;;;5029360;28;20494;-73
2024/01/16 10:24:28;;;;;;;1.20;1.20;;;1.00;99.90;;;;;;5031254;28;20035;-70
2024/01/16 10:27:03;;;;;;;1.65;1.20;;;1.10;99.90;;;;;;5024715;28;20033;-72
2024/01/16 10:29:32;;;;;;;0.63;0.63;;;1.30;99.90;;;;;;5029234;28;20067;-73
2024/01/16 10:31:59;;;;;;;0.20;0.20;;;1.50;99.90;;;;;;5027940;28;20653;-72
2024/01/16 10:34:25;;;;;;;0.75;0.63;;;1.60;99.90;;;;;;5030715;28;20861;-71
2024/01/16 10:36:52;;;;;;;15.25;1.25;;;1.80;99.80;;;;;;5031522;28;21327;-70
2024/01/16 10:39:18;;;;;;;3.95;1.55;;;1.90;98.90;;;;;;5027651;28;20523;-72
2024/01/16 10:42:00;;;;;;;0.98;0.98;;;2.10;98.20;;;;;;5015746;28;20032;-72
2024/01/16 10:44:27;;;;;;;0.73;0.73;;;2.30;97.50;;;;;;5031399;28;20060;-71
2024/01/16 10:47:11;;;;;;;0.15;0.15;;;2.40;96.90;;;;;;5025253;28;20033;-70
2024/01/16 10:49:37;;;;;;;1.88;0.32;;;2.40;96.40;;;;;;5033511;28;20033;-70
2024/01/16 10:52:09;;;;;;;4.15;0.98;;;2.60;95.50;;;;;;5030240;28;20079;-71
2024/01/16 10:54:37;;;;;;;0.68;0.50;;;2.70;95.60;;;;;;5037065;28;20086;-71
2024/01/16 10:57:04;;;;;;;2.05;0.50;;;2.90;95.20;;;;;;5036969;28;20124;-71
2024/01/16 10:59:46;;;;;;;0.52;0.52;;;3.10;94.80;;;;;;5021254;28;20110;-70
2024/01/16 11:02:16;;;;;;;1.15;1.02;;;3.20;94.90;;;;;;5029687;28;20043;-70
2024/01/16 11:04:43;;;;;;;0.60;0.60;;;3.30;94.60;;;;;;5032972;28;20040;-70
2024/01/16 11:07:09;;;;;;;0.50;0.50;;;3.40;93.90;;;;;;5026720;28;20033;-70
2024/01/16 11:09:36;;;;;;;1.50;1.33;;;3.50;93.80;;;;;;5027607;28;20029;-73
2024/01/16 11:12:03;;;;;;;0.47;0.40;;;3.60;94.00;;;;;;5026060;28;20129;-70
2024/01/16 11:14:31;;;;;;;0.25;0.25;;;3.70;93.90;;;;;;5027295;28;20033;-70
2024/01/16 11:17:01;;;;;;;0.75;0.57;;;3.70;93.40;;;;;;5032023;28;20087;-71
2024/01/16 11:19:27;;;;;;;0.50;0.50;;;3.50;93.00;;;;;;5028416;28;20060;-71
2024/01/16 11:21:53;;;;;;;1.08;0.63;;;3.40;93.50;;;;;;5029507;28;20120;-71
2024/01/16 11:24:19;;;;;;;4.20;0.70;;;3.50;93.60;;;;;;5032129;28;20071;-71
2024/01/16 11:26:45;;;;;;;0.40;0.22;;;3.60;93.20;;;;;;5019756;28;20402;-71
2024/01/16 11:29:30;;;;;;;0.43;0.43;;;3.60;92.70;;;;;;5029463;28;20048;-71
2024/01/16 11:31:58;;;;;;;1.17;0.68;;;3.70;92.60;;;;;;5029433;28;20124;-72
2024/01/16 11:34:43;;;;;;;0.25;0.25;;;3.70;92.00;;;;;;5029997;28;20493;-71
2024/01/16 11:37:12;;;;;;;0.10;0.10;;;3.80;91.20;;;;;;5030989;28;20083;-73
2024/01/16 11:39:38;;;;;;;0.35;0.25;;;3.80;90.60;;;;;;5028300;28;20142;-71
2024/01/16 11:42:04;;;;;;;0.32;0.32;;;3.70;91.00;;;;;;5027790;28;20028;-71
2024/01/16 11:44:50;;;;;;;0.20;0.20;;;3.80;91.10;;;;;;5024459;28;20102;-72
2024/01/16 11:47:21;;;;;;;1.60;0.55;;;3.90;90.50;;;;;;5018842;28;20126;-75
2024/01/16 11:49:47;;;;;;;0.38;0.38;;;4.00;90.40;;;;;;5022135;28;20036;-72
2024/01/16 11:52:14;;;;;;;1.85;0.63;;;4.00;89.40;;;;;;5028987;28;20849;-70
2024/01/16 11:54:41;;;;;;;0.10;0.10;;;4.10;88.30;;;;;;5025183;28;20141;-70
2024/01/16 11:57:27;;;;;;;1.13;0.30;;;4.20;86.20;;;;;;5030672;28;20137;-71
2024/01/16 12:00:12;;;;;;;0.85;0.38;;;4.20;84.20;;;;;;5023988;28;21128;-71
2024/01/16 12:02:52;;;;;;;4.57;0.57;;;4.40;83.10;;;;;;5028783;28;20041;-71
2024/01/16 12:05:18;;;;;;;1.10;0.43;;;4.60;82.70;;;;;;5028051;28;20041;-70
2024/01/16 12:07:49;;;;;;;0.20;0.20;;;4.70;79.00;;;;;;5025589;28;21079;-70
2024/01/16 12:10:16;;;;;;;0.52;0.52;;;5.10;90.20;;;;;;5027991;28;20033;-70
2024/01/16 12:12:44;;;;;;;0.30;0.22;;;4.70;74.10;;;;;;5024637;28;22055;-71
2024/01/16 12:15:19;;;;;;;2.60;0.25;;;4.70;73.20;;;;;;5032916;28;20033;-72
2024/01/16 12:18:03;;;;;;;0.00;0.00;;;4.60;71.10;;;;;;5034670;28;20064;-70
2024/01/16 12:20:31;;;;;;;6.32;0.75;;;4.60;69.80;;;;;;5025584;28;20025;-71
2024/01/16 12:23:05;;;;;;;0.00;0.00;;;4.50;67.00;;;;;;5037301;28;20103;-71
2024/01/16 12:25:32;;;;;;;0.00;0.00;;;4.50;66.00;;;;;;5036029;28;20055;-71
2024/01/16 12:28:00;;;;;;;0.10;0.10;;;4.50;73.40;;;;;;5034977;28;20190;-70
2024/01/16 12:30:28;;;;;;;1.48;0.57;;;4.50;70.90;;;;;;5034190;28;20033;-71
2024/01/16 12:33:06;;;;;;;0.10;0.10;;;;;;;;;;5032174;28;20148;-70
2024/01/16 12:35:35;;;;;;;0.20;0.20;;;4.70;68.40;;;;;;5043457;28;20033;-72
2024/01/16 12:38:02;;;;;;;0.22;0.22;;;4.70;67.20;;;;;;5034493;28;20274;-71
2024/01/16 12:40:28;;;;;;;0.00;0.00;;;4.80;60.60;;;;;;5031661;28;20040;-71
2024/01/16 12:42:54;;;;;;;0.00;0.00;;;4.70;60.90;;;;;;5032220;28;20056;-70
2024/01/16 12:45:21;;;;;;;0.08;0.08;;;4.60;64.80;;;;;;5028764;28;20438;-72
2024/01/16 12:47:54;;;;;;;0.20;0.20;;;4.50;65.70;;;;;;5028621;28;20033;-72